Time;durP1;ratioP1;P1;durP2;ratioP2;P2;SDS_P1;SDS_P2;PMS_P1;PMS_P2;Temp;Humidity;BMP_temperature;BMP_pressure;BME280_temperature;BME280_humidity;BME280_pressure;Samples;Min_cycle;Max_cycle;Signal;HPM_P1;HPM_P2
2021/03/21 00:00:34;;;;;;;14.43;10.00;;;5.20;99.90;;;;;;4996801;28;20186;-85
2021/03/21 00:03:01;;;;;;;12.18;10.88;;;5.30;99.90;;;;;;5001390;28;20214;-85
2021/03/21 00:05:28;;;;;;;15.70;10.52;;;5.30;99.90;;;;;;5015401;28;20200;-85
2021/03/21 00:07:57;;;;;;;18.75;15.48;;;5.30;99.90;;;;;;5010158;28;20241;-85
2021/03/21 00:10:25;;;;;;;14.40;11.98;;;5.30;99.90;;;;;;5023032;28;20252;-85
2021/03/21 00:12:52;;;;;;;14.27;12.40;;;5.30;99.90;;;;;;5007851;28;20194;-86
2021/03/21 00:15:18;;;;;;;18.35;13.82;;;5.30;99.90;;;;;;5003521;28;20258;-85
2021/03/21 00:17:45;;;;;;;16.70;12.25;;;5.30;99.90;;;;;;4998445;28;20186;-85
2021/03/21 00:20:14;;;;;;;14.85;12.05;;;5.30;99.90;;;;;;4999655;28;20233;-85
2021/03/21 00:22:40;;;;;;;17.98;12.98;;;5.30;99.90;;;;;;4998794;28;20686;-85
2021/03/21 00:25:13;;;;;;;14.43;12.40;;;5.30;99.90;;;;;;4999675;28;20194;-85
2021/03/21 00:27:41;;;;;;;13.57;11.98;;;5.30;99.90;;;;;;4999331;28;20444;-85
2021/03/21 00:30:11;;;;;;;19.40;15.25;;;5.30;99.90;;;;;;4996911;28;20196;-85
2021/03/21 00:32:38;;;;;;;22.70;15.45;;;5.30;99.90;;;;;;4996582;28;20542;-85
2021/03/21 00:35:05;;;;;;;16.17;14.18;;;5.30;99.90;;;;;;4996074;28;20190;-85
2021/03/21 00:37:32;;;;;;;24.67;17.67;;;5.30;99.90;;;;;;4996201;28;20197;-85
2021/03/21 00:39:58;;;;;;;24.00;15.77;;;5.30;99.90;;;;;;4996752;28;20190;-85
2021/03/21 00:42:24;;;;;;;22.42;14.90;;;5.30;99.90;;;;;;4994815;28;20210;-85
2021/03/21 00:44:51;;;;;;;25.00;15.23;;;5.30;99.90;;;;;;4996041;28;20280;-85
2021/03/21 00:47:18;;;;;;;17.02;13.30;;;5.30;99.90;;;;;;4995801;28;20278;-85
2021/03/21 00:49:46;;;;;;;16.17;12.18;;;5.30;99.90;;;;;;4996147;28;20531;-85
2021/03/21 00:52:12;;;;;;;17.30;14.60;;;5.30;99.90;;;;;;4978902;28;20229;-85
2021/03/21 00:54:38;;;;;;;17.02;13.20;;;5.30;99.90;;;;;;4995438;28;20186;-85
2021/03/21 00:57:06;;;;;;;16.88;13.95;;;5.30;99.90;;;;;;4994807;28;20273;-85
2021/03/21 00:59:32;;;;;;;18.20;14.13;;;5.30;99.90;;;;;;4995168;28;20634;-85
2021/03/21 01:02:00;;;;;;;17.40;12.88;;;5.30;99.90;;;;;;4996709;28;20210;-85
2021/03/21 01:04:26;;;;;;;19.92;15.00;;;5.30;99.90;;;;;;4994896;28;20685;-85
2021/03/21 01:06:52;;;;;;;16.10;14.30;;;5.30;99.90;;;;;;4994576;28;20523;-84
2021/03/21 01:09:19;;;;;;;16.75;12.48;;;5.20;99.90;;;;;;4994783;28;20293;-84
2021/03/21 01:11:45;;;;;;;15.70;13.30;;;5.20;99.90;;;;;;4994607;28;20197;-83
2021/03/21 01:14:11;;;;;;;19.20;14.07;;;5.20;99.90;;;;;;4994794;28;20197;-83
2021/03/21 01:16:42;;;;;;;16.08;12.70;;;5.20;99.90;;;;;;4996056;28;20276;-83
2021/03/21 01:19:13;;;;;;;20.48;13.30;;;5.20;99.90;;;;;;4995857;28;20488;-83
2021/03/21 01:21:44;;;;;;;18.73;15.13;;;5.10;99.90;;;;;;4997261;28;20190;-83
2021/03/21 01:24:11;;;;;;;14.02;11.43;;;5.10;99.90;;;;;;4994185;28;20253;-83
2021/03/21 01:26:37;;;;;;;15.98;12.85;;;5.10;99.90;;;;;;4993784;28;20276;-83
2021/03/21 01:29:04;;;;;;;16.27;11.88;;;5.10;99.90;;;;;;4994505;28;20545;-82
2021/03/21 01:31:31;;;;;;;16.45;11.70;;;5.00;99.90;;;;;;4993516;28;20270;-82
2021/03/21 01:33:57;;;;;;;17.42;11.75;;;5.10;99.90;;;;;;4993738;28;20198;-82
2021/03/21 01:36:28;;;;;;;16.92;12.15;;;5.10;99.90;;;;;;4993501;28;20196;-82
2021/03/21 01:38:55;;;;;;;18.55;13.52;;;5.10;99.90;;;;;;4994122;28;20285;-82
2021/03/21 01:41:26;;;;;;;17.35;13.73;;;5.10;99.90;;;;;;4994409;28;20262;-82
2021/03/21 01:43:53;;;;;;;24.55;14.70;;;5.00;99.90;;;;;;4994172;28;20629;-82
2021/03/21 01:46:23;;;;;;;27.20;17.08;;;5.10;99.90;;;;;;4993385;28;20260;-82
2021/03/21 01:48:53;;;;;;;32.03;25.35;;;5.10;99.90;;;;;;4993767;28;20201;-82
2021/03/21 01:51:23;;;;;;;38.30;27.02;;;5.10;99.90;;;;;;4993618;28;20642;-82
2021/03/21 01:53:55;;;;;;;41.00;27.63;;;5.20;99.90;;;;;;4997640;28;20204;-82
2021/03/21 01:56:22;;;;;;;47.28;31.95;;;5.10;99.90;;;;;;4998896;28;20186;-83
2021/03/21 01:58:55;;;;;;;46.70;31.92;;;5.10;99.90;;;;;;4997428;28;20277;-82
2021/03/21 02:01:25;;;;;;;46.67;30.92;;;5.20;99.90;;;;;;5002523;28;20190;-82
2021/03/21 02:03:51;;;;;;;43.65;31.55;;;5.10;99.90;;;;;;4996985;28;20217;-82
2021/03/21 02:06:36;;;;;;;48.75;32.78;;;5.10;99.90;;;;;;4996847;28;20569;-82
2021/03/21 02:09:07;;;;;;;44.35;31.50;;;5.10;99.90;;;;;;4997182;28;20236;-82
2021/03/21 02:11:52;;;;;;;45.72;32.10;;;5.10;99.90;;;;;;4996596;28;20187;-82
2021/03/21 02:14:24;;;;;;;48.20;32.10;;;5.10;99.90;;;;;;4981528;28;20186;-82
2021/03/21 02:16:58;;;;;;;53.35;33.50;;;5.10;99.90;;;;;;4997118;28;20194;-82
2021/03/21 02:19:52;;;;;;;49.80;30.70;;;5.10;99.90;;;;;;4997217;28;20577;-82
2021/03/21 02:22:24;;;;;;;50.58;32.03;;;5.10;99.90;;;;;;5005720;28;20186;-82
2021/03/21 02:25:29;;;;;;;48.63;30.98;;;5.10;99.90;;;;;;4996337;28;20182;-82
2021/03/21 02:28:14;;;;;;;48.17;31.75;;;5.10;99.90;;;;;;4955649;29;20193;-82
2021/03/21 02:30:45;;;;;;;51.90;35.17;;;5.10;99.90;;;;;;4998922;28;20217;-82
2021/03/21 02:33:16;;;;;;;44.40;30.23;;;5.10;99.90;;;;;;4998242;28;20202;-82
2021/03/21 02:35:49;;;;;;;42.10;29.58;;;5.10;99.90;;;;;;4997326;28;20286;-82
2021/03/21 02:38:25;;;;;;;44.15;30.55;;;5.00;99.90;;;;;;4996585;28;20186;-82
2021/03/21 02:40:55;;;;;;;48.97;29.58;;;5.10;99.90;;;;;;5003669;28;20548;-82
2021/03/21 02:43:28;;;;;;;41.85;30.20;;;5.10;99.90;;;;;;5015846;28;20665;-81
2021/03/21 02:45:59;;;;;;;47.45;31.95;;;5.10;99.90;;;;;;4998278;28;20190;-82
2021/03/21 02:48:30;;;;;;;52.00;34.83;;;5.00;99.90;;;;;;4997878;28;20202;-82
2021/03/21 02:51:01;;;;;;;44.97;28.50;;;5.10;99.90;;;;;;4997168;28;20214;-82
2021/03/21 02:53:34;;;;;;;49.90;31.02;;;5.10;99.90;;;;;;4996493;28;20236;-82
2021/03/21 02:56:02;;;;;;;56.15;35.13;;;5.10;99.90;;;;;;4997677;28;20206;-82
2021/03/21 02:58:34;;;;;;;46.38;33.25;;;5.10;99.90;;;;;;4996651;28;20198;-81
2021/03/21 03:01:06;;;;;;;53.90;33.90;;;5.10;99.90;;;;;;4996215;28;20221;-81
2021/03/21 03:03:34;;;;;;;52.25;33.53;;;5.10;99.90;;;;;;4996100;28;20570;-82
2021/03/21 03:06:05;;;;;;;52.25;33.83;;;5.10;99.90;;;;;;4995559;28;20190;-82
2021/03/21 03:08:37;;;;;;;48.05;31.65;;;5.00;99.90;;;;;;4995817;28;20245;-81
2021/03/21 03:11:07;;;;;;;49.15;32.83;;;5.00;99.90;;;;;;4996360;28;20672;-82
2021/03/21 03:13:38;;;;;;;55.45;35.60;;;5.00;99.90;;;;;;4995591;28;20186;-81
2021/03/21 03:16:14;;;;;;;46.75;31.85;;;5.10;99.90;;;;;;4996172;28;20190;-81
2021/03/21 03:18:47;;;;;;;43.80;28.20;;;5.00;99.90;;;;;;4995743;28;20194;-82
2021/03/21 03:21:21;;;;;;;56.88;35.53;;;5.00;99.90;;;;;;4996043;28;20217;-81
2021/03/21 03:23:54;;;;;;;55.63;36.15;;;5.10;99.90;;;;;;4995358;28;20685;-81
2021/03/21 03:26:26;;;;;;;47.78;31.00;;;5.00;99.90;;;;;;4998206;28;20194;-82
2021/03/21 03:29:00;;;;;;;61.92;36.05;;;5.10;99.90;;;;;;4995600;28;20190;-81
2021/03/21 03:31:34;;;;;;;73.43;42.30;;;5.00;99.90;;;;;;4995728;28;20189;-82
2021/03/21 03:34:00;;;;;;;63.78;40.13;;;5.10;99.90;;;;;;4998253;28;20197;-81
2021/03/21 03:36:26;;;;;;;63.80;37.65;;;5.10;99.90;;;;;;5003254;28;20194;-82
2021/03/21 03:38:53;;;;;;;60.92;37.95;;;5.10;99.90;;;;;;4994728;28;20178;-82
2021/03/21 03:41:28;;;;;;;65.63;39.70;;;5.10;99.90;;;;;;4995448;28;20189;-82
2021/03/21 03:44:02;;;;;;;67.05;40.65;;;5.10;99.90;;;;;;4996174;28;20213;-82
2021/03/21 03:46:37;;;;;;;62.58;37.65;;;5.10;99.90;;;;;;5015080;28;20240;-82
2021/03/21 03:49:14;;;;;;;59.63;39.58;;;5.10;99.90;;;;;;4996252;28;20189;-82
2021/03/21 03:52:04;;;;;;;59.40;40.33;;;5.10;99.90;;;;;;4995054;28;20290;-82
2021/03/21 03:54:34;;;;;;;63.30;41.17;;;5.10;99.90;;;;;;4987318;28;20194;-82
2021/03/21 03:57:07;;;;;;;61.17;41.97;;;5.20;99.90;;;;;;4994462;28;20190;-81
2021/03/21 03:59:56;;;;;;;55.10;38.05;;;5.20;99.90;;;;;;4995373;28;20198;-81
2021/03/21 04:02:28;;;;;;;46.80;32.17;;;5.10;99.90;;;;;;4994753;28;20205;-81
2021/03/21 04:05:00;;;;;;;53.35;31.17;;;5.10;99.90;;;;;;5004843;28;20190;-81
2021/03/21 04:07:36;;;;;;;44.78;31.77;;;5.10;99.90;;;;;;4995496;28;20656;-81
2021/03/21 04:10:09;;;;;;;44.78;31.58;;;5.10;99.90;;;;;;4995154;28;20200;-81
2021/03/21 04:12:42;;;;;;;53.20;32.28;;;5.10;99.90;;;;;;4998097;28;20252;-81
2021/03/21 04:15:13;;;;;;;34.35;26.60;;;5.20;99.90;;;;;;5014562;28;20193;-82
2021/03/21 04:17:48;;;;;;;37.58;26.35;;;5.10;99.90;;;;;;4993463;28;20196;-81
2021/03/21 04:20:18;;;;;;;45.63;28.58;;;5.10;99.90;;;;;;4995037;28;20217;-81
2021/03/21 04:22:50;;;;;;;35.50;28.00;;;5.10;99.90;;;;;;4998713;28;20209;-81
2021/03/21 04:25:21;;;;;;;43.15;27.60;;;5.10;99.90;;;;;;5014383;28;20193;-81
2021/03/21 04:27:53;;;;;;;43.17;29.45;;;5.10;99.90;;;;;;4994114;28;20186;-82
2021/03/21 04:30:26;;;;;;;40.88;26.23;;;5.10;99.90;;;;;;4994496;28;20197;-81
2021/03/21 04:32:55;;;;;;;37.53;26.90;;;5.10;99.90;;;;;;4998645;28;20192;-81
2021/03/21 04:35:25;;;;;;;44.90;28.35;;;5.10;99.90;;;;;;5014128;28;20197;-81
2021/03/21 04:38:10;;;;;;;39.50;27.98;;;5.10;99.90;;;;;;4994056;28;20308;-81
2021/03/21 04:40:37;;;;;;;36.40;27.95;;;5.10;99.90;;;;;;4994674;28;20608;-81
2021/03/21 04:43:11;;;;;;;36.63;26.83;;;5.10;99.90;;;;;;4988218;28;20570;-82
2021/03/21 04:45:44;;;;;;;48.83;29.02;;;5.10;99.90;;;;;;4975333;28;20201;-82
2021/03/21 04:48:15;;;;;;;33.63;26.90;;;5.10;99.90;;;;;;4987484;28;20186;-81
2021/03/21 04:50:41;;;;;;;29.65;23.20;;;5.10;99.90;;;;;;4993481;28;20213;-81
2021/03/21 04:53:17;;;;;;;35.72;21.67;;;5.10;99.90;;;;;;4994143;28;20201;-81
2021/03/21 04:55:50;;;;;;;26.08;17.45;;;5.10;99.90;;;;;;4993802;28;20179;-81
2021/03/21 04:58:28;;;;;;;31.45;20.80;;;5.10;99.90;;;;;;4975010;28;20195;-82
2021/03/21 05:01:03;;;;;;;31.52;18.58;;;5.10;99.90;;;;;;4984704;28;20220;-83
2021/03/21 05:03:37;;;;;;;28.67;21.13;;;5.10;99.90;;;;;;5000855;28;20631;-83
2021/03/21 05:06:11;;;;;;;26.63;20.10;;;5.10;99.90;;;;;;5000926;28;20192;-82
2021/03/21 05:08:44;;;;;;;22.55;14.85;;;5.10;99.90;;;;;;4994430;28;20193;-82
2021/03/21 05:11:11;;;;;;;24.58;20.13;;;5.10;99.90;;;;;;4993899;28;20182;-83
2021/03/21 05:13:43;;;;;;;26.63;19.83;;;5.10;99.90;;;;;;4994577;28;20196;-83
2021/03/21 05:16:17;;;;;;;25.35;17.52;;;5.10;99.90;;;;;;4993790;28;20198;-82
2021/03/21 05:18:51;;;;;;;26.17;19.30;;;5.10;99.90;;;;;;4994000;28;20638;-83
2021/03/21 05:21:23;;;;;;;26.60;20.48;;;5.10;99.90;;;;;;4994270;28;20194;-82
2021/03/21 05:23:59;;;;;;;25.10;17.80;;;5.10;99.90;;;;;;4994158;28;20214;-82
2021/03/21 05:26:33;;;;;;;28.42;18.80;;;5.10;99.90;;;;;;5002268;28;20189;-82
2021/03/21 05:29:20;;;;;;;27.83;19.65;;;5.10;99.90;;;;;;4987493;28;20279;-83
2021/03/21 05:31:47;;;;;;;29.48;21.33;;;5.10;99.90;;;;;;4989229;28;20218;-83
2021/03/21 05:34:15;;;;;;;29.60;21.48;;;5.10;99.90;;;;;;4996857;28;20664;-83
2021/03/21 05:36:56;;;;;;;29.13;21.30;;;5.20;99.90;;;;;;4979634;28;20242;-82
2021/03/21 05:39:33;;;;;;;27.63;20.95;;;5.20;99.90;;;;;;4997571;28;20549;-83
2021/03/21 05:42:34;;;;;;;26.13;19.75;;;5.20;99.90;;;;;;4982090;28;20189;-83
2021/03/21 05:45:39;;;;;;;21.65;17.30;;;5.20;99.90;;;;;;4997485;28;20559;-83
2021/03/21 05:48:30;;;;;;;25.60;19.02;;;5.20;99.90;;;;;;4997783;28;20189;-83
2021/03/21 05:51:24;;;;;;;24.50;18.55;;;5.20;99.90;;;;;;4988957;28;20271;-82
2021/03/21 05:54:40;;;;;;;28.08;21.90;;;5.20;99.90;;;;;;4998003;28;20202;-83
2021/03/21 05:57:26;;;;;;;23.23;18.17;;;5.20;99.90;;;;;;4987760;28;20194;-82
2021/03/21 06:00:18;;;;;;;24.05;19.85;;;5.20;99.90;;;;;;4997997;28;20201;-82
2021/03/21 06:03:12;;;;;;;22.92;18.70;;;5.20;99.90;;;;;;4997159;28;20234;-83
2021/03/21 06:06:13;;;;;;;24.65;19.70;;;5.30;99.90;;;;;;4997207;28;20194;-83
2021/03/21 06:09:03;;;;;;;24.98;19.10;;;5.30;99.90;;;;;;4991251;28;20683;-83
2021/03/21 06:11:53;;;;;;;23.55;18.90;;;5.30;99.90;;;;;;5006720;28;20190;-82
2021/03/21 06:14:46;;;;;;;23.75;18.33;;;5.30;99.90;;;;;;4997734;28;20650;-83
2021/03/21 06:17:51;;;;;;;22.13;17.85;;;5.30;99.90;;;;;;4997174;28;20195;-83
2021/03/21 06:20:47;;;;;;;23.52;17.55;;;5.30;99.90;;;;;;4965409;28;20194;-83
2021/03/21 06:23:41;;;;;;;21.40;18.15;;;5.40;99.90;;;;;;4975762;28;20577;-83
2021/03/21 06:26:18;;;;;;;22.08;18.80;;;5.40;99.90;;;;;;4993584;28;20236;-82
2021/03/21 06:29:24;;;;;;;20.65;16.77;;;5.40;99.90;;;;;;5003292;28;20190;-82
2021/03/21 06:32:27;;;;;;;17.10;14.25;;;5.40;99.90;;;;;;4988921;28;20573;-83
2021/03/21 06:35:05;;;;;;;18.45;15.75;;;5.40;99.90;;;;;;4996358;28;20201;-82
2021/03/21 06:37:58;;;;;;;18.60;14.85;;;5.50;99.90;;;;;;4996861;28;20575;-82
2021/03/21 06:40:50;;;;;;;17.00;12.88;;;5.50;99.90;;;;;;4985414;28;20256;-82
2021/03/21 06:43:44;;;;;;;16.10;12.55;;;5.50;99.90;;;;;;5005906;28;20209;-83
2021/03/21 06:46:35;;;;;;;16.25;12.88;;;5.50;99.90;;;;;;4996284;28;20267;-82
2021/03/21 06:49:45;;;;;;;13.40;11.25;;;5.50;99.90;;;;;;5004931;28;20645;-83
2021/03/21 06:52:31;;;;;;;17.33;11.00;;;5.60;99.90;;;;;;5003448;28;20222;-82
2021/03/21 06:55:03;;;;;;;17.30;12.18;;;5.70;99.90;;;;;;4996685;28;20190;-82
2021/03/21 06:57:55;;;;;;;15.13;11.48;;;5.70;99.90;;;;;;4997308;28;20284;-82
2021/03/21 07:00:52;;;;;;;17.17;11.90;;;5.70;99.90;;;;;;4995544;28;20185;-83
2021/03/21 07:04:04;;;;;;;15.55;12.23;;;5.80;99.90;;;;;;4996519;28;20226;-82
2021/03/21 07:07:03;;;;;;;13.52;11.43;;;5.80;99.90;;;;;;4996651;28;20178;-83
2021/03/21 07:10:19;;;;;;;12.98;8.13;;;5.80;99.90;;;;;;4988275;28;20253;-84
2021/03/21 07:13:29;;;;;;;13.57;10.00;;;5.80;99.90;;;;;;4993227;28;20190;-83
2021/03/21 07:16:30;;;;;;;12.63;9.10;;;5.80;99.90;;;;;;4996007;28;20324;-83
2021/03/21 07:19:30;;;;;;;9.95;8.48;;;5.90;99.90;;;;;;4996344;28;20197;-82
2021/03/21 07:22:22;;;;;;;9.15;7.22;;;5.90;99.90;;;;;;4963541;28;20190;-82
2021/03/21 07:25:23;;;;;;;9.90;8.40;;;6.00;99.90;;;;;;4979182;28;20226;-83
2021/03/21 07:28:02;;;;;;;11.63;8.07;;;6.00;99.90;;;;;;4993046;28;20646;-83
2021/03/21 07:30:42;;;;;;;11.43;8.68;;;6.00;99.90;;;;;;5007792;28;20557;-83
2021/03/21 07:33:42;;;;;;;14.07;8.90;;;6.00;99.90;;;;;;4996133;28;20202;-82
2021/03/21 07:36:25;;;;;;;9.48;7.80;;;6.10;99.90;;;;;;4980529;28;20186;-84
2021/03/21 07:39:11;;;;;;;9.55;6.57;;;6.00;99.90;;;;;;4993406;28;20201;-82
2021/03/21 07:41:54;;;;;;;11.82;7.60;;;6.00;99.90;;;;;;4996482;28;20187;-82
2021/03/21 07:44:39;;;;;;;11.50;7.97;;;6.00;99.90;;;;;;4994966;28;20241;-83
2021/03/21 07:47:27;;;;;;;11.55;8.65;;;6.00;99.90;;;;;;4996007;28;20190;-83
2021/03/21 07:50:30;;;;;;;10.98;8.32;;;5.90;99.90;;;;;;4993907;28;20613;-82
2021/03/21 07:53:25;;;;;;;10.15;7.15;;;5.90;99.90;;;;;;4964729;28;20197;-83
2021/03/21 07:55:55;;;;;;;7.10;5.88;;;5.80;99.90;;;;;;4976570;28;20542;-83
2021/03/21 07:58:34;;;;;;;8.50;4.35;;;5.70;99.90;;;;;;4995200;28;20186;-83
2021/03/21 08:01:01;;;;;;;8.18;4.15;;;5.60;99.90;;;;;;4995467;28;20669;-83
2021/03/21 08:03:37;;;;;;;8.45;4.50;;;5.60;99.90;;;;;;4994806;28;20495;-83
2021/03/21 08:06:12;;;;;;;7.80;4.82;;;5.70;99.90;;;;;;4996204;28;20190;-83
2021/03/21 08:08:43;;;;;;;9.68;3.83;;;5.90;99.90;;;;;;4995888;28;20200;-83
2021/03/21 08:11:09;;;;;;;9.05;5.72;;;6.00;99.90;;;;;;4999616;28;20344;-83
2021/03/21 08:13:42;;;;;;;5.28;4.72;;;5.90;99.90;;;;;;4994777;28;20193;-83
2021/03/21 08:16:13;;;;;;;8.40;5.22;;;5.90;99.90;;;;;;4996132;28;20615;-83
2021/03/21 08:18:40;;;;;;;6.55;3.88;;;6.00;99.90;;;;;;4995841;28;20190;-83
2021/03/21 08:21:13;;;;;;;9.73;5.22;;;6.00;99.90;;;;;;4996696;28;20713;-84
2021/03/21 08:23:41;;;;;;;7.40;3.60;;;6.00;99.90;;;;;;5009632;28;20218;-83
2021/03/21 08:26:10;;;;;;;6.05;4.95;;;6.00;99.90;;;;;;5005205;28;20199;-83
2021/03/21 08:28:59;;;;;;;6.00;4.05;;;6.00;99.90;;;;;;4996185;28;20189;-83
2021/03/21 08:31:29;;;;;;;10.45;4.38;;;6.00;99.90;;;;;;4995738;28;20198;-83
2021/03/21 08:34:08;;;;;;;12.02;4.95;;;6.00;99.90;;;;;;4984736;28;20198;-82
2021/03/21 08:36:35;;;;;;;6.18;4.63;;;6.10;99.90;;;;;;4993965;28;20186;-83
2021/03/21 08:39:06;;;;;;;6.07;3.53;;;6.20;99.90;;;;;;4988843;28;20244;-82
2021/03/21 08:41:47;;;;;;;9.68;4.95;;;6.10;99.90;;;;;;5012192;28;20189;-82
2021/03/21 08:44:31;;;;;;;5.80;3.65;;;6.10;99.90;;;;;;5005813;28;20202;-83
2021/03/21 08:46:59;;;;;;;6.32;3.45;;;6.10;99.90;;;;;;4921256;28;20213;-84
2021/03/21 08:49:29;;;;;;;7.22;3.95;;;6.10;99.90;;;;;;5005444;28;20186;-84
2021/03/21 08:51:56;;;;;;;7.22;2.38;;;6.10;99.90;;;;;;5006140;28;20275;-83
2021/03/21 08:54:27;;;;;;;6.38;2.40;;;6.00;99.90;;;;;;5007988;28;20532;-83
2021/03/21 08:56:59;;;;;;;5.28;2.70;;;6.00;99.90;;;;;;5009258;28;20218;-83
2021/03/21 08:59:29;;;;;;;12.43;4.25;;;6.00;99.90;;;;;;5008819;28;20240;-84
2021/03/21 09:02:07;;;;;;;9.50;3.25;;;6.10;99.90;;;;;;5009436;28;20190;-84
2021/03/21 09:04:36;;;;;;;8.73;5.13;;;6.20;99.90;;;;;;5007139;28;20224;-84
2021/03/21 09:07:22;;;;;;;14.93;4.55;;;6.30;99.90;;;;;;5009355;28;20277;-84
2021/03/21 09:10:08;;;;;;;8.95;3.25;;;6.30;99.90;;;;;;5008823;28;20219;-84
2021/03/21 09:12:36;;;;;;;13.63;3.63;;;6.30;99.90;;;;;;5008262;28;20198;-85
2021/03/21 09:15:33;;;;;;;11.27;2.67;;;6.50;99.90;;;;;;5020118;28;20200;-84
2021/03/21 09:18:11;;;;;;;18.25;5.60;;;6.40;99.90;;;;;;5014829;28;20565;-84
2021/03/21 09:20:41;;;;;;;8.85;3.38;;;6.40;99.90;;;;;;5019946;28;20908;-85
2021/03/21 09:23:33;;;;;;;12.82;3.67;;;6.40;99.90;;;;;;5019329;28;20189;-84
2021/03/21 09:26:01;;;;;;;6.25;2.75;;;6.40;99.90;;;;;;4981314;28;20647;-85
2021/03/21 09:28:33;;;;;;;8.13;3.25;;;6.50;99.90;;;;;;5020337;28;20227;-85
2021/03/21 09:31:01;;;;;;;9.05;2.92;;;6.50;99.90;;;;;;5017693;28;20196;-85
2021/03/21 09:33:31;;;;;;;12.55;3.30;;;6.50;99.90;;;;;;5014674;28;20203;-85
2021/03/21 09:36:01;;;;;;;9.90;3.60;;;6.60;99.90;;;;;;4994756;28;20225;-86
2021/03/21 09:38:32;;;;;;;12.80;5.45;;;6.80;99.90;;;;;;4994191;28;20237;-86
2021/03/21 09:41:02;;;;;;;6.35;2.88;;;6.90;99.90;;;;;;4994665;28;20245;-87
2021/03/21 09:43:32;;;;;;;14.60;5.45;;;7.00;99.90;;;;;;4993887;28;20215;-89
2021/03/21 09:46:30;;;;;;;11.85;4.55;;;7.10;99.90;;;;;;4995417;28;20684;-88
2021/03/21 09:49:07;;;;;;;12.45;3.47;;;7.30;99.90;;;;;;4995339;28;20219;-88
2021/03/21 09:51:43;;;;;;;12.85;4.00;;;7.10;99.90;;;;;;4994885;28;20264;-88
2021/03/21 09:54:20;;;;;;;10.38;4.38;;;7.00;99.90;;;;;;5008429;28;20185;-88
2021/03/21 09:56:52;;;;;;;12.05;4.65;;;6.90;99.90;;;;;;5002196;28;20186;-88
2021/03/21 09:59:36;;;;;;;11.95;3.58;;;6.80;99.90;;;;;;4976696;28;20224;-88
2021/03/21 10:02:14;;;;;;;8.98;3.97;;;6.80;99.90;;;;;;4990248;28;20569;-88
2021/03/21 10:04:53;;;;;;;7.75;4.28;;;6.70;99.90;;;;;;4999279;28;20214;-88
2021/03/21 10:07:22;;;;;;;11.25;4.05;;;6.70;99.90;;;;;;4997064;28;20190;-87
2021/03/21 10:09:51;;;;;;;8.45;4.45;;;6.70;99.90;;;;;;4996299;28;20202;-88
2021/03/21 10:12:19;;;;;;;10.07;2.95;;;6.80;99.90;;;;;;4995899;28;20225;-88
2021/03/21 10:15:01;;;;;;;11.07;4.10;;;6.90;99.90;;;;;;5010665;28;20281;-87
2021/03/21 10:17:50;;;;;;;15.02;4.60;;;6.80;99.90;;;;;;4999449;28;20609;-88
2021/03/21 10:20:18;;;;;;;17.15;5.35;;;6.80;99.90;;;;;;4999596;28;20201;-87
2021/03/21 10:22:59;;;;;;;12.65;4.57;;;6.80;99.90;;;;;;4998856;28;20182;-88
2021/03/21 10:26:09;;;;;;;15.55;4.47;;;6.70;99.90;;;;;;5000877;28;20615;-87
2021/03/21 10:28:47;;;;;;;20.70;6.47;;;6.80;99.90;;;;;;5019417;28;20642;-86
2021/03/21 10:31:31;;;;;;;9.27;4.10;;;7.00;99.90;;;;;;5007417;28;20190;-86
2021/03/21 10:34:35;;;;;;;17.60;5.85;;;7.10;99.90;;;;;;5005337;28;20198;-86
2021/03/21 10:37:02;;;;;;;17.15;5.32;;;6.90;99.90;;;;;;5001389;28;20604;-86
2021/03/21 10:39:57;;;;;;;19.50;5.30;;;7.10;99.90;;;;;;5003511;28;20324;-86
2021/03/21 10:42:57;;;;;;;14.95;6.13;;;7.20;99.90;;;;;;4998380;28;20218;-86
2021/03/21 10:45:47;;;;;;;19.52;6.38;;;7.10;99.90;;;;;;4997665;28;20194;-86
2021/03/21 10:48:50;;;;;;;10.45;4.25;;;7.10;99.90;;;;;;5006186;28;20742;-87
2021/03/21 10:51:16;;;;;;;14.82;5.25;;;7.10;99.90;;;;;;4983310;28;20266;-86
2021/03/21 10:54:15;;;;;;;15.75;5.70;;;7.10;99.90;;;;;;4993977;28;20649;-87
2021/03/21 10:56:41;;;;;;;15.73;5.68;;;7.20;99.90;;;;;;4997364;28;20586;-86
2021/03/21 10:59:24;;;;;;;14.20;5.05;;;7.40;99.90;;;;;;4978660;28;20627;-87
2021/03/21 11:02:20;;;;;;;16.45;6.28;;;7.50;99.90;;;;;;4997722;28;20194;-86
2021/03/21 11:04:56;;;;;;;13.65;4.70;;;7.70;99.90;;;;;;4995920;28;20218;-87
2021/03/21 11:07:23;;;;;;;17.80;5.97;;;7.80;99.90;;;;;;4996999;28;20184;-86
2021/03/21 11:09:52;;;;;;;13.07;5.50;;;8.10;99.90;;;;;;4997446;28;20208;-86
2021/03/21 11:12:32;;;;;;;12.20;4.55;;;8.20;99.90;;;;;;4999210;28;20646;-86
2021/03/21 11:15:15;;;;;;;11.00;4.85;;;8.30;99.90;;;;;;4999409;28;20225;-86
2021/03/21 11:17:43;;;;;;;15.90;5.68;;;8.30;99.90;;;;;;4998272;28;20186;-86
2021/03/21 11:20:25;;;;;;;21.05;6.18;;;8.30;99.90;;;;;;4997891;28;20202;-86
2021/03/21 11:22:52;;;;;;;44.08;6.78;;;8.20;99.90;;;;;;4999777;28;20197;-86
2021/03/21 11:25:34;;;;;;;16.65;7.32;;;8.20;99.90;;;;;;5014619;28;20202;-87
2021/03/21 11:28:01;;;;;;;10.98;5.47;;;8.00;99.90;;;;;;4999581;28;20279;-86
2021/03/21 11:30:28;;;;;;;16.45;6.68;;;7.80;99.90;;;;;;4997700;28;20265;-87
2021/03/21 11:32:57;;;;;;;12.52;6.25;;;7.70;99.90;;;;;;4997238;28;20680;-86
2021/03/21 11:35:28;;;;;;;13.68;8.77;;;7.70;99.90;;;;;;4997037;28;20190;-86
2021/03/21 11:37:56;;;;;;;18.33;7.90;;;7.80;99.90;;;;;;4997946;28;20198;-87
2021/03/21 11:40:27;;;;;;;20.63;5.40;;;7.80;99.90;;;;;;4999305;28;20182;-87
2021/03/21 11:43:23;;;;;;;15.02;6.10;;;7.90;99.90;;;;;;5000759;28;20282;-87
2021/03/21 11:45:51;;;;;;;17.67;6.35;;;8.00;99.90;;;;;;5002059;28;20709;-86
2021/03/21 11:48:31;;;;;;;27.65;6.10;;;8.20;99.90;;;;;;5001404;28;20209;-86
2021/03/21 11:50:57;;;;;;;12.73;5.45;;;8.40;99.90;;;;;;5005032;28;20577;-86
2021/03/21 11:53:27;;;;;;;18.42;5.78;;;8.70;99.90;;;;;;4997083;28;20646;-87
2021/03/21 11:56:01;;;;;;;24.10;5.95;;;9.20;99.90;;;;;;4998694;28;20232;-86
2021/03/21 11:58:38;;;;;;;32.10;8.52;;;9.50;99.90;;;;;;4999842;28;20191;-86
2021/03/21 12:01:16;;;;;;;15.30;5.85;;;9.30;99.90;;;;;;5017335;28;20251;-86
2021/03/21 12:03:46;;;;;;;12.68;5.65;;;9.10;99.90;;;;;;5004529;28;20216;-86
2021/03/21 12:06:30;;;;;;;13.02;5.13;;;9.10;99.90;;;;;;4999193;28;20198;-86
2021/03/21 12:08:57;;;;;;;21.60;7.10;;;9.40;99.90;;;;;;4998002;28;20192;-86
2021/03/21 12:11:36;;;;;;;22.23;7.20;;;9.40;99.90;;;;;;4998578;28;20241;-86
2021/03/21 12:14:25;;;;;;;21.88;6.20;;;9.20;99.90;;;;;;4998492;28;20186;-85
2021/03/21 12:16:54;;;;;;;14.80;5.57;;;9.20;99.90;;;;;;5000969;28;20263;-89
2021/03/21 12:19:30;;;;;;;12.63;6.35;;;9.20;99.90;;;;;;4998778;28;20248;-88
2021/03/21 12:22:00;;;;;;;17.63;6.00;;;9.20;99.90;;;;;;5000033;28;20217;-89
2021/03/21 12:24:28;;;;;;;17.50;6.35;;;9.50;99.90;;;;;;4997313;28;20241;-88
2021/03/21 12:27:27;;;;;;;13.25;4.68;;;9.70;99.90;;;;;;4998188;28;20182;-88
2021/03/21 12:30:01;;;;;;;21.02;6.10;;;9.80;99.90;;;;;;4998393;28;20186;-88
2021/03/21 12:35:40;;;;;;;20.60;6.13;;;9.40;99.90;;;;;;5063541;23;20250;-87
2021/03/21 12:38:26;;;;;;;12.38;5.85;;;9.20;99.90;;;;;;4971256;28;20196;-85
2021/03/21 12:40:54;;;;;;;15.00;6.35;;;9.40;99.90;;;;;;4962446;28;20195;-86
2021/03/21 12:43:25;;;;;;;20.75;7.05;;;9.30;99.90;;;;;;4955428;29;20305;-86
2021/03/21 12:45:59;;;;;;;20.08;5.55;;;9.20;99.90;;;;;;4952474;28;20207;-87
2021/03/21 12:48:27;;;;;;;22.38;7.20;;;9.40;99.90;;;;;;4948065;28;20222;-87
2021/03/21 12:50:57;;;;;;;16.38;4.82;;;9.50;99.90;;;;;;4866135;28;20216;-86
2021/03/21 12:53:27;;;;;;;18.55;5.75;;;9.70;99.90;;;;;;4945899;28;20184;-86
2021/03/21 12:55:55;;;;;;;16.73;6.93;;;9.70;99.90;;;;;;4956461;28;20270;-86
2021/03/21 12:58:22;;;;;;;21.38;6.03;;;9.40;99.90;;;;;;4950959;28;20679;-87
2021/03/21 13:00:50;;;;;;;21.98;7.65;;;9.50;99.90;;;;;;4940114;29;20232;-88
2021/03/21 13:03:27;;;;;;;17.20;6.03;;;9.60;99.90;;;;;;4946901;28;20548;-86
2021/03/21 13:05:55;;;;;;;16.83;9.18;;;9.30;99.90;;;;;;4958638;28;20191;-87
2021/03/21 13:08:22;;;;;;;18.27;6.82;;;9.40;99.90;;;;;;4946410;28;20566;-86
2021/03/21 13:10:49;;;;;;;21.92;7.85;;;9.50;99.90;;;;;;4945903;28;20744;-86
2021/03/21 13:13:16;;;;;;;19.77;6.60;;;9.40;99.90;;;;;;4941107;29;20219;-86
2021/03/21 13:15:43;;;;;;;11.23;5.88;;;9.70;99.90;;;;;;4948526;28;20202;-86
2021/03/21 13:18:17;;;;;;;24.83;9.30;;;9.80;99.90;;;;;;4944825;28;20203;-85
2021/03/21 13:20:43;;;;;;;20.00;8.00;;;9.50;99.90;;;;;;4953035;29;20231;-86
2021/03/21 13:23:10;;;;;;;23.88;7.85;;;9.50;99.90;;;;;;4947339;28;20188;-86
2021/03/21 13:25:37;;;;;;;19.50;5.40;;;9.60;99.90;;;;;;4944702;28;20216;-86
2021/03/21 13:28:06;;;;;;;23.15;6.35;;;9.70;99.90;;;;;;4947495;28;20211;-86
2021/03/21 13:30:34;;;;;;;26.73;6.70;;;9.80;99.90;;;;;;4949707;28;20203;-85
2021/03/21 13:33:01;;;;;;;22.27;7.70;;;9.60;99.90;;;;;;4952767;28;20194;-86